Kapuskasing Airport
CYYU : rendu visible

Aérodrome :











RETROUVEZ-NOUS SUR...

 
LOGIN :

S'inscrire | Disclaimer

   EN    FR    IT 

 









Légende :    VFR   VFR Marginal   IFR   IFR Intensif   IFR Très Intensif
Visi : 
Plafond : 
>= 8 km
>= 3000ft
5 à 8 km
1000 à 3000 ft
1500m à 5 km
500 à 1000 ft
800 à 1500m
200 à 500 ft
< 800m
< 200 ft
Symboles :   Orages  Brouillard  Fortes neiges  Fortes précipitations  Vent > 20 kt






- Altitude de l'aérodrome : 743 ft
- Code IATA : YYU


CYYU - Kapuskasing

DERNIER METAR :
  • 222200Z 22011G17KT 15SM OVC019 M06/M08 A2977 RMK SC8 SLP100

METARs EXPIRÉS :
  • 222100Z 22009KT 15SM SCT034 BKN072 M07/M09 A2979 RMK SC3AC3 SLP106
  • 222000Z 23010KT 15SM FEW170 M06/M09 A2980 RMK AC1 SLP111

TAF AMD TAF CYYU
Valide du 22 à 22h jusqu'au 23 à 08h UTC


222216Z 2222/2308 24012KT P6SM FEW020 SCT100
TEMPO 2222/2303 P6SM -SN BKN020
FM230300 22010KT P6SM BKN025 BKN080
TEMPO 2303/2308 BKN020 BKN080 RMK NXT FCST BY 230200Z



MET'MAP, la Météo Aéronautique d'un coup d'oeil ! - Copyright ORBIFLY Décembre 2007 - Disclaimer

ORBIFLY MET'MAP TEAM :

Programmation & Développement : Alexandra Zaïnal
Conception & Développement : Baudouin d'Aumeries
Co-Programmation & Développement : Marc-Olivier Méhu
Soutien technique & logistique : Manuel Goepfert

Contact : metmap@orbifly.com




SOURCES & CREDITS :

   NOAA       Earth
Advisory